Torrinha, Brazil
Current Conditions -  °F | °C
As of 8:00 PM on Thursday 27 Nov 2014 (Local Time) from SBAQ Reporting Station
Scattered Clouds Scattered Clouds  
Wind Chill: 77°   Ceiling: Unl
Heat Index: 78°   Visibility: 6mi
Dew Point: 73°   Wind: 2mph
Humidity: 89%   Direction: 110°ESE
Pressure: 29.91"   Gusts: NA
Location:  22.43°S, 48.17°W
Report Text: SBAQ 272200Z 11002KT 9999 SCT020 25/23 Q1013
Loading
Personal Weather Stations






























Interactive Weather Map New forecast layout! Learn more

10-Day Weather Forecast

Advertisements
Track Severe Weather on mobile